sensor_id;sensor_type;location;lat;lon;timestamp;temperature;humidity
67942;SHT31;54731;42.600;23.476;2023-04-03T00:00:11;6.93;68.78
67942;SHT31;54731;42.600;23.476;2023-04-03T00:02:37;6.96;68.67
67942;SHT31;54731;42.600;23.476;2023-04-03T00:05:02;6.91;68.74
67942;SHT31;54731;42.600;23.476;2023-04-03T00:07:27;6.97;68.69
67942;SHT31;54731;42.600;23.476;2023-04-03T00:09:53;6.92;68.91
67942;SHT31;54731;42.600;23.476;2023-04-03T00:12:18;6.91;68.99
67942;SHT31;54731;42.600;23.476;2023-04-03T00:14:43;6.93;68.81
67942;SHT31;54731;42.600;23.476;2023-04-03T00:17:09;6.97;68.84
67942;SHT31;54731;42.600;23.476;2023-04-03T00:19:34;6.95;68.89
67942;SHT31;54731;42.600;23.476;2023-04-03T00:21:59;6.86;69.25
67942;SHT31;54731;42.600;23.476;2023-04-03T00:24:24;6.82;69.33
67942;SHT31;54731;42.600;23.476;2023-04-03T00:26:50;6.71;69.84
67942;SHT31;54731;42.600;23.476;2023-04-03T00:29:15;6.59;70.31
67942;SHT31;54731;42.600;23.476;2023-04-03T00:31:40;6.71;70.15
67942;SHT31;54731;42.600;23.476;2023-04-03T00:34:06;6.67;70.10
67942;SHT31;54731;42.600;23.476;2023-04-03T00:36:31;6.64;70.23
67942;SHT31;54731;42.600;23.476;2023-04-03T00:38:56;6.65;70.39
67942;SHT31;54731;42.600;23.476;2023-04-03T00:41:22;6.65;70.44
67942;SHT31;54731;42.600;23.476;2023-04-03T00:43:47;6.67;70.23
67942;SHT31;54731;42.600;23.476;2023-04-03T00:46:12;6.69;70.20
67942;SHT31;54731;42.600;23.476;2023-04-03T00:48:41;6.69;70.26
67942;SHT31;54731;42.600;23.476;2023-04-03T00:51:10;6.65;70.31
67942;SHT31;54731;42.600;23.476;2023-04-03T00:54:05;6.65;70.28
67942;SHT31;54731;42.600;23.476;2023-04-03T00:56:32;6.59;70.57
67942;SHT31;54731;42.600;23.476;2023-04-03T00:59:04;6.56;70.63
67942;SHT31;54731;42.600;23.476;2023-04-03T01:01:31;6.48;70.94
67942;SHT31;54731;42.600;23.476;2023-04-03T01:03:59;6.46;71.28
67942;SHT31;54731;42.600;23.476;2023-04-03T01:06:28;6.46;71.21
67942;SHT31;54731;42.600;23.476;2023-04-03T01:08:54;6.49;71.14
67942;SHT31;54731;42.600;23.476;2023-04-03T01:11:20;6.49;71.41
67942;SHT31;54731;42.600;23.476;2023-04-03T01:13:46;6.48;71.27
67942;SHT31;54731;42.600;23.476;2023-04-03T01:16:11;6.49;71.31
67942;SHT31;54731;42.600;23.476;2023-04-03T01:18:39;6.51;71.11
67942;SHT31;54731;42.600;23.476;2023-04-03T01:26:04;6.53;70.98
67942;SHT31;54731;42.600;23.476;2023-04-03T01:28:32;6.51;70.94
67942;SHT31;54731;42.600;23.476;2023-04-03T01:31:24;6.48;71.06
67942;SHT31;54731;42.600;23.476;2023-04-03T01:33:50;6.48;70.98
67942;SHT31;54731;42.600;23.476;2023-04-03T01:36:22;6.55;70.90
67942;SHT31;54731;42.600;23.476;2023-04-03T01:38:48;6.58;70.71
67942;SHT31;54731;42.600;23.476;2023-04-03T01:41:14;6.58;70.67
67942;SHT31;54731;42.600;23.476;2023-04-03T01:43:39;6.48;70.94
67942;SHT31;54731;42.600;23.476;2023-04-03T01:46:04;6.45;71.17
67942;SHT31;54731;42.600;23.476;2023-04-03T01:48:30;6.30;71.49
67942;SHT31;54731;42.600;23.476;2023-04-03T01:50:55;6.31;71.56
67942;SHT31;54731;42.600;23.476;2023-04-03T01:53:20;6.30;71.42
67942;SHT31;54731;42.600;23.476;2023-04-03T01:55:46;6.24;71.75
67942;SHT31;54731;42.600;23.476;2023-04-03T01:58:11;6.20;71.76
67942;SHT31;54731;42.600;23.476;2023-04-03T02:00:36;6.17;72.10
67942;SHT31;54731;42.600;23.476;2023-04-03T02:03:02;6.00;72.50
67942;SHT31;54731;42.600;23.476;2023-04-03T02:05:27;6.06;72.48
67942;SHT31;54731;42.600;23.476;2023-04-03T02:07:53;6.04;72.43
67942;SHT31;54731;42.600;23.476;2023-04-03T02:10:18;6.01;72.44
67942;SHT31;54731;42.600;23.476;2023-04-03T02:12:43;5.98;72.79
67942;SHT31;54731;42.600;23.476;2023-04-03T02:15:09;5.97;72.97
67942;SHT31;54731;42.600;23.476;2023-04-03T02:17:35;5.96;72.96
67942;SHT31;54731;42.600;23.476;2023-04-03T02:20:00;5.96;72.93
67942;SHT31;54731;42.600;23.476;2023-04-03T02:22:26;5.98;72.80
67942;SHT31;54731;42.600;23.476;2023-04-03T02:24:51;5.97;72.71
67942;SHT31;54731;42.600;23.476;2023-04-03T02:27:17;5.97;72.69
67942;SHT31;54731;42.600;23.476;2023-04-03T02:29:42;5.97;72.79
67942;SHT31;54731;42.600;23.476;2023-04-03T02:32:07;5.96;73.01
67942;SHT31;54731;42.600;23.476;2023-04-03T02:34:32;5.90;73.18
67942;SHT31;54731;42.600;23.476;2023-04-03T02:36:58;5.93;73.23
67942;SHT31;54731;42.600;23.476;2023-04-03T02:39:23;5.89;73.14
67942;SHT31;54731;42.600;23.476;2023-04-03T02:41:49;5.85;73.03
67942;SHT31;54731;42.600;23.476;2023-04-03T02:44:14;5.85;72.95
67942;SHT31;54731;42.600;23.476;2023-04-03T02:46:39;5.81;73.22
67942;SHT31;54731;42.600;23.476;2023-04-03T02:49:05;5.76;73.34
67942;SHT31;54731;42.600;23.476;2023-04-03T02:51:30;5.70;73.56
67942;SHT31;54731;42.600;23.476;2023-04-03T02:53:55;5.70;73.78
67942;SHT31;54731;42.600;23.476;2023-04-03T02:56:21;5.71;73.80
67942;SHT31;54731;42.600;23.476;2023-04-03T02:58:46;5.71;73.60
67942;SHT31;54731;42.600;23.476;2023-04-03T03:01:19;5.70;73.63
67942;SHT31;54731;42.600;23.476;2023-04-03T03:03:44;5.62;74.16
67942;SHT31;54731;42.600;23.476;2023-04-03T03:06:12;5.52;74.50
67942;SHT31;54731;42.600;23.476;2023-04-03T03:08:38;5.46;74.71
67942;SHT31;54731;42.600;23.476;2023-04-03T03:11:04;5.40;74.99
67942;SHT31;54731;42.600;23.476;2023-04-03T03:13:30;5.45;74.76
67942;SHT31;54731;42.600;23.476;2023-04-03T03:15:55;5.47;74.76
67942;SHT31;54731;42.600;23.476;2023-04-03T03:18:21;5.50;74.54
67942;SHT31;54731;42.600;23.476;2023-04-03T03:20:51;5.46;74.53
67942;SHT31;54731;42.600;23.476;2023-04-03T03:23:16;5.45;74.61
67942;SHT31;54731;42.600;23.476;2023-04-03T03:25:41;5.49;74.57
67942;SHT31;54731;42.600;23.476;2023-04-03T03:28:07;5.42;74.76
67942;SHT31;54731;42.600;23.476;2023-04-03T03:30:33;5.35;75.23
67942;SHT31;54731;42.600;23.476;2023-04-03T03:32:58;5.31;75.34
67942;SHT31;54731;42.600;23.476;2023-04-03T03:35:24;5.18;75.68
67942;SHT31;54731;42.600;23.476;2023-04-03T03:37:49;5.22;75.52
67942;SHT31;54731;42.600;23.476;2023-04-03T03:40:14;5.25;75.32
67942;SHT31;54731;42.600;23.476;2023-04-03T03:42:40;5.26;75.22
67942;SHT31;54731;42.600;23.476;2023-04-03T03:45:06;5.24;75.24
67942;SHT31;54731;42.600;23.476;2023-04-03T03:47:32;5.24;75.33
67942;SHT31;54731;42.600;23.476;2023-04-03T03:49:57;5.25;75.35
67942;SHT31;54731;42.600;23.476;2023-04-03T03:52:22;5.22;75.44
67942;SHT31;54731;42.600;23.476;2023-04-03T03:54:48;5.22;75.29
67942;SHT31;54731;42.600;23.476;2023-04-03T03:57:13;5.24;75.23
67942;SHT31;54731;42.600;23.476;2023-04-03T03:59:38;5.11;75.59
67942;SHT31;54731;42.600;23.476;2023-04-03T04:02:03;5.11;75.58
67942;SHT31;54731;42.600;23.476;2023-04-03T04:04:29;5.12;75.66
67942;SHT31;54731;42.600;23.476;2023-04-03T04:06:55;5.14;75.87
67942;SHT31;54731;42.600;23.476;2023-04-03T04:09:20;5.11;75.95
67942;SHT31;54731;42.600;23.476;2023-04-03T04:11:45;5.14;75.96
67942;SHT31;54731;42.600;23.476;2023-04-03T04:14:10;5.14;75.86
67942;SHT31;54731;42.600;23.476;2023-04-03T04:16:36;5.14;76.00
67942;SHT31;54731;42.600;23.476;2023-04-03T04:19:01;5.16;76.03
67942;SHT31;54731;42.600;23.476;2023-04-03T04:21:26;5.12;76.20
67942;SHT31;54731;42.600;23.476;2023-04-03T04:23:52;5.18;76.19
67942;SHT31;54731;42.600;23.476;2023-04-03T04:26:17;5.15;76.06
67942;SHT31;54731;42.600;23.476;2023-04-03T04:28:42;5.18;76.02
67942;SHT31;54731;42.600;23.476;2023-04-03T04:31:08;5.21;76.05
67942;SHT31;54731;42.600;23.476;2023-04-03T04:33:33;5.24;76.06
67942;SHT31;54731;42.600;23.476;2023-04-03T04:35:58;5.26;76.14
67942;SHT31;54731;42.600;23.476;2023-04-03T04:38:24;5.25;76.28
67942;SHT31;54731;42.600;23.476;2023-04-03T04:40:49;5.32;76.20
67942;SHT31;54731;42.600;23.476;2023-04-03T04:43:15;5.32;76.31
67942;SHT31;54731;42.600;23.476;2023-04-03T04:45:41;5.39;76.44
67942;SHT31;54731;42.600;23.476;2023-04-03T04:48:06;5.39;76.55
67942;SHT31;54731;42.600;23.476;2023-04-03T04:50:32;5.49;76.39
67942;SHT31;54731;42.600;23.476;2023-04-03T04:52:57;5.52;76.34
67942;SHT31;54731;42.600;23.476;2023-04-03T04:55:22;5.56;76.35
67942;SHT31;54731;42.600;23.476;2023-04-03T04:57:48;5.59;76.45
67942;SHT31;54731;42.600;23.476;2023-04-03T05:00:14;5.56;76.62
67942;SHT31;54731;42.600;23.476;2023-04-03T05:02:39;5.59;76.66
67942;SHT31;54731;42.600;23.476;2023-04-03T05:05:04;5.57;76.81
67942;SHT31;54731;42.600;23.476;2023-04-03T05:07:30;5.62;76.89
67942;SHT31;54731;42.600;23.476;2023-04-03T05:09:55;5.69;76.84
67942;SHT31;54731;42.600;23.476;2023-04-03T05:12:20;5.73;76.84
67942;SHT31;54731;42.600;23.476;2023-04-03T05:14:46;5.77;76.79
67942;SHT31;54731;42.600;23.476;2023-04-03T05:17:11;5.85;76.78
67942;SHT31;54731;42.600;23.476;2023-04-03T05:19:36;5.91;76.71
67942;SHT31;54731;42.600;23.476;2023-04-03T05:22:02;5.94;76.63
67942;SHT31;54731;42.600;23.476;2023-04-03T05:24:27;5.98;76.67
67942;SHT31;54731;42.600;23.476;2023-04-03T05:26:53;6.04;76.58
67942;SHT31;54731;42.600;23.476;2023-04-03T05:29:18;6.14;76.37
67942;SHT31;54731;42.600;23.476;2023-04-03T05:31:43;6.20;76.35
67942;SHT31;54731;42.600;23.476;2023-04-03T05:34:09;6.24;76.10
67942;SHT31;54731;42.600;23.476;2023-04-03T05:36:34;6.31;75.95
67942;SHT31;54731;42.600;23.476;2023-04-03T05:38:59;6.38;75.86
67942;SHT31;54731;42.600;23.476;2023-04-03T05:41:25;6.45;75.86
67942;SHT31;54731;42.600;23.476;2023-04-03T05:43:50;6.49;75.74
67942;SHT31;54731;42.600;23.476;2023-04-03T05:46:17;6.55;75.58
67942;SHT31;54731;42.600;23.476;2023-04-03T05:48:43;6.58;74.21
67942;SHT31;54731;42.600;23.476;2023-04-03T05:51:20;6.64;74.03
67942;SHT31;54731;42.600;23.476;2023-04-03T05:53:47;6.72;73.81
67942;SHT31;54731;42.600;23.476;2023-04-03T05:56:12;6.73;73.58
67942;SHT31;54731;42.600;23.476;2023-04-03T05:58:38;6.76;73.56
67942;SHT31;54731;42.600;23.476;2023-04-03T06:01:03;6.72;73.77
67942;SHT31;54731;42.600;23.476;2023-04-03T06:03:29;6.76;74.33
67942;SHT31;54731;42.600;23.476;2023-04-03T06:05:54;6.81;75.01
67942;SHT31;54731;42.600;23.476;2023-04-03T06:08:19;6.86;75.08
67942;SHT31;54731;42.600;23.476;2023-04-03T06:10:45;6.96;74.86
67942;SHT31;54731;42.600;23.476;2023-04-03T06:13:10;6.96;74.70
67942;SHT31;54731;42.600;23.476;2023-04-03T06:15:36;7.00;75.30
67942;SHT31;54731;42.600;23.476;2023-04-03T06:18:02;6.96;74.46
67942;SHT31;54731;42.600;23.476;2023-04-03T06:20:27;6.96;75.26
67942;SHT31;54731;42.600;23.476;2023-04-03T06:22:52;7.05;75.02
67942;SHT31;54731;42.600;23.476;2023-04-03T06:25:18;7.07;74.95
67942;SHT31;54731;42.600;23.476;2023-04-03T06:27:43;6.99;74.87
67942;SHT31;54731;42.600;23.476;2023-04-03T06:30:08;7.03;74.38
67942;SHT31;54731;42.600;23.476;2023-04-03T06:32:34;6.93;74.81
67942;SHT31;54731;42.600;23.476;2023-04-03T06:34:59;6.93;75.06
67942;SHT31;54731;42.600;23.476;2023-04-03T06:37:24;6.97;75.00
67942;SHT31;54731;42.600;23.476;2023-04-03T06:39:50;7.10;74.58
67942;SHT31;54731;42.600;23.476;2023-04-03T06:42:15;7.31;74.09
67942;SHT31;54731;42.600;23.476;2023-04-03T06:44:40;7.31;73.72
67942;SHT31;54731;42.600;23.476;2023-04-03T06:47:06;7.27;73.93
67942;SHT31;54731;42.600;23.476;2023-04-03T06:49:31;7.37;73.85
67942;SHT31;54731;42.600;23.476;2023-04-03T06:51:56;7.47;73.19
67942;SHT31;54731;42.600;23.476;2023-04-03T06:54:23;7.47;73.41
67942;SHT31;54731;42.600;23.476;2023-04-03T06:56:49;7.61;72.17
67942;SHT31;54731;42.600;23.476;2023-04-03T06:59:14;7.66;72.04
67942;SHT31;54731;42.600;23.476;2023-04-03T07:01:40;7.75;71.65
67942;SHT31;54731;42.600;23.476;2023-04-03T07:04:05;7.80;71.75
67942;SHT31;54731;42.600;23.476;2023-04-03T07:06:30;7.85;71.80
67942;SHT31;54731;42.600;23.476;2023-04-03T07:08:56;7.92;71.82
67942;SHT31;54731;42.600;23.476;2023-04-03T07:11:21;7.97;72.15
67942;SHT31;54731;42.600;23.476;2023-04-03T07:13:47;8.02;72.11
67942;SHT31;54731;42.600;23.476;2023-04-03T07:16:12;8.15;71.59
67942;SHT31;54731;42.600;23.476;2023-04-03T07:18:37;8.26;71.31
67942;SHT31;54731;42.600;23.476;2023-04-03T07:21:04;8.41;71.35
67942;SHT31;54731;42.600;23.476;2023-04-03T07:23:29;8.62;70.75
67942;SHT31;54731;42.600;23.476;2023-04-03T07:25:55;8.77;70.41
67942;SHT31;54731;42.600;23.476;2023-04-03T07:28:21;8.74;69.88
67942;SHT31;54731;42.600;23.476;2023-04-03T07:30:49;8.66;70.05
67942;SHT31;54731;42.600;23.476;2023-04-03T07:33:16;8.62;70.83
67942;SHT31;54731;42.600;23.476;2023-04-03T07:35:43;8.59;70.48
67942;SHT31;54731;42.600;23.476;2023-04-03T07:38:09;8.56;70.79
67942;SHT31;54731;42.600;23.476;2023-04-03T07:40:35;8.46;72.00
67942;SHT31;54731;42.600;23.476;2023-04-03T07:43:00;8.31;72.27
67942;SHT31;54731;42.600;23.476;2023-04-03T07:45:26;8.39;72.62
67942;SHT31;54731;42.600;23.476;2023-04-03T07:47:52;8.73;71.87
67942;SHT31;54731;42.600;23.476;2023-04-03T07:50:18;8.80;70.91
67942;SHT31;54731;42.600;23.476;2023-04-03T07:52:44;8.86;70.82
67942;SHT31;54731;42.600;23.476;2023-04-03T07:55:09;9.00;70.26
67942;SHT31;54731;42.600;23.476;2023-04-03T07:57:34;8.39;70.68
67942;SHT31;54731;42.600;23.476;2023-04-03T08:00:00;8.43;71.22
67942;SHT31;54731;42.600;23.476;2023-04-03T08:02:25;8.69;70.40
67942;SHT31;54731;42.600;23.476;2023-04-03T08:04:50;8.93;69.99
67942;SHT31;54731;42.600;23.476;2023-04-03T08:07:15;8.94;69.57
67942;SHT31;54731;42.600;23.476;2023-04-03T08:09:41;9.16;69.47
67942;SHT31;54731;42.600;23.476;2023-04-03T08:12:06;9.30;69.25
67942;SHT31;54731;42.600;23.476;2023-04-03T08:14:32;9.52;68.65
67942;SHT31;54731;42.600;23.476;2023-04-03T08:16:57;9.54;68.03
67942;SHT31;54731;42.600;23.476;2023-04-03T08:19:22;9.77;67.76
67942;SHT31;54731;42.600;23.476;2023-04-03T08:21:48;9.88;66.91
67942;SHT31;54731;42.600;23.476;2023-04-03T08:24:13;9.67;67.47
67942;SHT31;54731;42.600;23.476;2023-04-03T08:26:38;9.86;67.31
67942;SHT31;54731;42.600;23.476;2023-04-03T08:29:04;9.96;66.48
67942;SHT31;54731;42.600;23.476;2023-04-03T08:31:31;10.03;66.62
67942;SHT31;54731;42.600;23.476;2023-04-03T08:33:57;10.26;66.41
67942;SHT31;54731;42.600;23.476;2023-04-03T08:36:24;10.49;65.23
67942;SHT31;54731;42.600;23.476;2023-04-03T08:38:51;10.60;64.89
67942;SHT31;54731;42.600;23.476;2023-04-03T08:41:35;10.83;65.22
67942;SHT31;54731;42.600;23.476;2023-04-03T08:44:31;11.11;64.40
67942;SHT31;54731;42.600;23.476;2023-04-03T08:49:43;11.25;63.17
67942;SHT31;54731;42.600;23.476;2023-04-03T08:52:11;11.43;62.30
67942;SHT31;54731;42.600;23.476;2023-04-03T08:54:52;11.42;62.61
67942;SHT31;54731;42.600;23.476;2023-04-03T08:57:28;11.32;63.11
67942;SHT31;54731;42.600;23.476;2023-04-03T08:59:56;11.18;62.28
67942;SHT31;54731;42.600;23.476;2023-04-03T09:02:35;11.17;63.79
67942;SHT31;54731;42.600;23.476;2023-04-03T09:05:13;11.36;62.72
67942;SHT31;54731;42.600;23.476;2023-04-03T09:07:54;11.40;63.33
67942;SHT31;54731;42.600;23.476;2023-04-03T09:10:28;11.40;61.66
67942;SHT31;54731;42.600;23.476;2023-04-03T09:13:03;11.68;62.34
67942;SHT31;54731;42.600;23.476;2023-04-03T09:15:30;11.51;62.25
67942;SHT31;54731;42.600;23.476;2023-04-03T09:23:24;11.46;60.20
67942;SHT31;54731;42.600;23.476;2023-04-03T09:26:12;11.83;60.78
67942;SHT31;54731;42.600;23.476;2023-04-03T09:28:39;11.99;60.34
67942;SHT31;54731;42.600;23.476;2023-04-03T09:31:21;12.13;60.43
67942;SHT31;54731;42.600;23.476;2023-04-03T09:33:53;12.22;60.33
67942;SHT31;54731;42.600;23.476;2023-04-03T09:36:59;12.24;59.79
67942;SHT31;54731;42.600;23.476;2023-04-03T09:39:29;12.36;57.97
67942;SHT31;54731;42.600;23.476;2023-04-03T09:44:28;12.54;56.53
67942;SHT31;54731;42.600;23.476;2023-04-03T09:46:53;12.63;55.76
67942;SHT31;54731;42.600;23.476;2023-04-03T09:49:19;12.73;54.28
67942;SHT31;54731;42.600;23.476;2023-04-03T09:51:44;12.74;55.20
67942;SHT31;54731;42.600;23.476;2023-04-03T09:54:32;12.67;54.09
67942;SHT31;54731;42.600;23.476;2023-04-03T09:57:04;12.80;54.47
67942;SHT31;54731;42.600;23.476;2023-04-03T09:59:31;12.81;54.61
67942;SHT31;54731;42.600;23.476;2023-04-03T10:02:02;12.78;54.77
67942;SHT31;54731;42.600;23.476;2023-04-03T10:04:40;12.58;54.64
67942;SHT31;54731;42.600;23.476;2023-04-03T10:10:22;12.64;55.53
67942;SHT31;54731;42.600;23.476;2023-04-03T10:12:47;12.69;55.33
67942;SHT31;54731;42.600;23.476;2023-04-03T10:15:14;12.83;55.76
67942;SHT31;54731;42.600;23.476;2023-04-03T10:17:50;12.94;55.33
67942;SHT31;54731;42.600;23.476;2023-04-03T10:20:35;13.02;54.91
67942;SHT31;54731;42.600;23.476;2023-04-03T10:25:40;12.87;54.65
67942;SHT31;54731;42.600;23.476;2023-04-03T10:28:12;12.95;55.21
67942;SHT31;54731;42.600;23.476;2023-04-03T10:33:52;12.88;55.61
67942;SHT31;54731;42.600;23.476;2023-04-03T10:36:50;12.92;56.14
67942;SHT31;54731;42.600;23.476;2023-04-03T10:42:15;12.87;56.88
67942;SHT31;54731;42.600;23.476;2023-04-03T10:48:10;12.84;57.19
67942;SHT31;54731;42.600;23.476;2023-04-03T10:53:39;12.73;59.54
67942;SHT31;54731;42.600;23.476;2023-04-03T10:58:40;12.73;61.47
67942;SHT31;54731;42.600;23.476;2023-04-03T11:01:11;12.61;61.80
67942;SHT31;54731;42.600;23.476;2023-04-03T11:03:53;12.54;62.17
67942;SHT31;54731;42.600;23.476;2023-04-03T11:06:21;12.45;63.19
67942;SHT31;54731;42.600;23.476;2023-04-03T11:08:54;12.22;64.21
67942;SHT31;54731;42.600;23.476;2023-04-03T11:11:24;12.31;65.00
67942;SHT31;54731;42.600;23.476;2023-04-03T11:13:56;12.03;66.95
67942;SHT31;54731;42.600;23.476;2023-04-03T11:16:27;12.03;67.56
67942;SHT31;54731;42.600;23.476;2023-04-03T11:19:11;11.80;68.69
67942;SHT31;54731;42.600;23.476;2023-04-03T11:21:45;11.66;70.42
67942;SHT31;54731;42.600;23.476;2023-04-03T11:24:20;11.52;70.63
67942;SHT31;54731;42.600;23.476;2023-04-03T11:26:48;11.48;70.91
67942;SHT31;54731;42.600;23.476;2023-04-03T11:29:19;11.51;71.64
67942;SHT31;54731;42.600;23.476;2023-04-03T11:34:48;11.59;70.33
67942;SHT31;54731;42.600;23.476;2023-04-03T11:37:33;11.66;70.66
67942;SHT31;54731;42.600;23.476;2023-04-03T11:40:21;11.73;70.95
67942;SHT31;54731;42.600;23.476;2023-04-03T11:42:49;11.75;70.70
67942;SHT31;54731;42.600;23.476;2023-04-03T11:47:49;11.22;72.12
67942;SHT31;54731;42.600;23.476;2023-04-03T12:05:49;10.67;71.79
67942;SHT31;54731;42.600;23.476;2023-04-03T12:08:23;10.61;72.54
67942;SHT31;54731;42.600;23.476;2023-04-03T12:16:02;10.47;71.79
67942;SHT31;54731;42.600;23.476;2023-04-03T12:23:58;10.19;72.13
67942;SHT31;54731;42.600;23.476;2023-04-03T12:26:27;10.03;73.77
67942;SHT31;54731;42.600;23.476;2023-04-03T12:28:55;10.06;73.96
67942;SHT31;54731;42.600;23.476;2023-04-03T12:31:24;10.06;73.99
67942;SHT31;54731;42.600;23.476;2023-04-03T12:34:04;10.06;74.00
67942;SHT31;54731;42.600;23.476;2023-04-03T12:37:37;10.03;74.19
67942;SHT31;54731;42.600;23.476;2023-04-03T12:45:20;9.83;75.15
67942;SHT31;54731;42.600;23.476;2023-04-03T12:47:49;9.91;75.34
67942;SHT31;54731;42.600;23.476;2023-04-03T12:50:40;9.92;75.46
67942;SHT31;54731;42.600;23.476;2023-04-03T12:53:16;9.89;75.02
67942;SHT31;54731;42.600;23.476;2023-04-03T12:55:43;9.72;74.92
67942;SHT31;54731;42.600;23.476;2023-04-03T12:58:26;9.63;75.37
67942;SHT31;54731;42.600;23.476;2023-04-03T13:01:10;9.67;75.28
67942;SHT31;54731;42.600;23.476;2023-04-03T13:03:38;9.61;74.91
67942;SHT31;54731;42.600;23.476;2023-04-03T13:06:04;9.47;75.01
67942;SHT31;54731;42.600;23.476;2023-04-03T13:08:30;9.27;75.90
67942;SHT31;54731;42.600;23.476;2023-04-03T13:11:22;9.30;76.01
67942;SHT31;54731;42.600;23.476;2023-04-03T13:14:20;9.24;75.90
67942;SHT31;54731;42.600;23.476;2023-04-03T13:16:57;9.26;76.10
67942;SHT31;54731;42.600;23.476;2023-04-03T13:19:27;9.21;76.08
67942;SHT31;54731;42.600;23.476;2023-04-03T13:22:00;9.04;76.47
67942;SHT31;54731;42.600;23.476;2023-04-03T13:24:28;9.08;76.66
67942;SHT31;54731;42.600;23.476;2023-04-03T13:26:54;9.11;76.71
67942;SHT31;54731;42.600;23.476;2023-04-03T13:29:26;9.17;76.75
67942;SHT31;54731;42.600;23.476;2023-04-03T13:31:55;9.13;76.88
67942;SHT31;54731;42.600;23.476;2023-04-03T13:34:23;9.18;76.93
67942;SHT31;54731;42.600;23.476;2023-04-03T13:39:20;9.17;77.08
67942;SHT31;54731;42.600;23.476;2023-04-03T13:41:49;9.20;77.04
67942;SHT31;54731;42.600;23.476;2023-04-03T13:46:53;9.21;77.29
67942;SHT31;54731;42.600;23.476;2023-04-03T13:51:47;9.23;77.22
67942;SHT31;54731;42.600;23.476;2023-04-03T13:54:18;9.18;77.45
67942;SHT31;54731;42.600;23.476;2023-04-03T13:56:45;9.26;77.33
67942;SHT31;54731;42.600;23.476;2023-04-03T14:01:47;9.24;77.69
67942;SHT31;54731;42.600;23.476;2023-04-03T14:07:02;9.24;78.12
67942;SHT31;54731;42.600;23.476;2023-04-03T14:09:28;9.21;78.38
67942;SHT31;54731;42.600;23.476;2023-04-03T14:11:59;9.14;78.43
67942;SHT31;54731;42.600;23.476;2023-04-03T14:14:30;9.11;78.68
67942;SHT31;54731;42.600;23.476;2023-04-03T14:16:59;9.16;78.86
67942;SHT31;54731;42.600;23.476;2023-04-03T14:19:31;9.10;79.35
67942;SHT31;54731;42.600;23.476;2023-04-03T14:21:59;9.13;79.28
67942;SHT31;54731;42.600;23.476;2023-04-03T14:24:24;9.10;79.38
67942;SHT31;54731;42.600;23.476;2023-04-03T14:26:52;9.13;79.14
67942;SHT31;54731;42.600;23.476;2023-04-03T14:29:19;9.14;78.50
67942;SHT31;54731;42.600;23.476;2023-04-03T14:31:46;8.99;78.41
67942;SHT31;54731;42.600;23.476;2023-04-03T14:34:13;8.99;78.54
67942;SHT31;54731;42.600;23.476;2023-04-03T14:36:39;8.88;79.14
67942;SHT31;54731;42.600;23.476;2023-04-03T14:39:06;8.99;78.94
67942;SHT31;54731;42.600;23.476;2023-04-03T14:41:32;9.03;78.79
67942;SHT31;54731;42.600;23.476;2023-04-03T14:43:57;8.91;79.22
67942;SHT31;54731;42.600;23.476;2023-04-03T14:46:30;8.88;79.34
67942;SHT31;54731;42.600;23.476;2023-04-03T14:48:56;8.77;78.50
67942;SHT31;54731;42.600;23.476;2023-04-03T14:51:22;8.84;78.06
67942;SHT31;54731;42.600;23.476;2023-04-03T14:53:48;8.73;77.90
67942;SHT31;54731;42.600;23.476;2023-04-03T14:58:43;8.74;77.29
67942;SHT31;54731;42.600;23.476;2023-04-03T15:01:10;8.74;77.41
67942;SHT31;54731;42.600;23.476;2023-04-03T15:03:36;8.59;78.07
67942;SHT31;54731;42.600;23.476;2023-04-03T15:06:01;8.41;78.43
67942;SHT31;54731;42.600;23.476;2023-04-03T15:08:27;8.39;78.99
67942;SHT31;54731;42.600;23.476;2023-04-03T15:10:53;8.38;78.77
67942;SHT31;54731;42.600;23.476;2023-04-03T15:13:19;8.43;78.87
67942;SHT31;54731;42.600;23.476;2023-04-03T15:15:45;8.52;78.83
67942;SHT31;54731;42.600;23.476;2023-04-03T15:18:18;8.50;78.80
67942;SHT31;54731;42.600;23.476;2023-04-03T15:20:47;8.46;79.10
67942;SHT31;54731;42.600;23.476;2023-04-03T15:23:14;8.55;78.99
67942;SHT31;54731;42.600;23.476;2023-04-03T15:25:39;8.55;78.95
67942;SHT31;54731;42.600;23.476;2023-04-03T15:28:05;8.36;78.40
67942;SHT31;54731;42.600;23.476;2023-04-03T15:30:31;8.32;78.90
67942;SHT31;54731;42.600;23.476;2023-04-03T15:32:57;8.24;77.80
67942;SHT31;54731;42.600;23.476;2023-04-03T15:35:22;8.16;77.69
67942;SHT31;54731;42.600;23.476;2023-04-03T15:37:47;8.11;78.25
67942;SHT31;54731;42.600;23.476;2023-04-03T15:40:13;8.13;78.24
67942;SHT31;54731;42.600;23.476;2023-04-03T15:42:39;8.01;78.65
67942;SHT31;54731;42.600;23.476;2023-04-03T15:45:05;8.03;78.75
67942;SHT31;54731;42.600;23.476;2023-04-03T15:47:31;8.03;78.61
67942;SHT31;54731;42.600;23.476;2023-04-03T15:49:56;7.97;79.44
67942;SHT31;54731;42.600;23.476;2023-04-03T15:52:22;7.82;80.02
67942;SHT31;54731;42.600;23.476;2023-04-03T15:54:48;7.75;79.83
67942;SHT31;54731;42.600;23.476;2023-04-03T15:57:13;7.75;79.53
67942;SHT31;54731;42.600;23.476;2023-04-03T15:59:38;7.53;77.71
67942;SHT31;54731;42.600;23.476;2023-04-03T16:02:07;7.67;77.67
67942;SHT31;54731;42.600;23.476;2023-04-03T16:04:33;7.48;77.50
67942;SHT31;54731;42.600;23.476;2023-04-03T16:07:01;7.54;77.51
67942;SHT31;54731;42.600;23.476;2023-04-03T16:09:27;7.56;77.93
67942;SHT31;54731;42.600;23.476;2023-04-03T16:11:52;7.60;78.13
67942;SHT31;54731;42.600;23.476;2023-04-03T16:14:18;7.71;78.21
67942;SHT31;54731;42.600;23.476;2023-04-03T16:16:43;7.77;78.50
67942;SHT31;54731;42.600;23.476;2023-04-03T16:19:09;7.77;78.42
67942;SHT31;54731;42.600;23.476;2023-04-03T16:21:34;7.81;78.29
67942;SHT31;54731;42.600;23.476;2023-04-03T16:24:01;7.82;78.40
67942;SHT31;54731;42.600;23.476;2023-04-03T16:26:26;7.81;78.61
67942;SHT31;54731;42.600;23.476;2023-04-03T16:28:52;7.80;79.31
67942;SHT31;54731;42.600;23.476;2023-04-03T16:31:18;7.77;79.38
67942;SHT31;54731;42.600;23.476;2023-04-03T16:33:43;7.71;79.60
67942;SHT31;54731;42.600;23.476;2023-04-03T16:36:08;7.63;79.88
67942;SHT31;54731;42.600;23.476;2023-04-03T16:38:35;7.63;79.94
67942;SHT31;54731;42.600;23.476;2023-04-03T16:41:01;7.68;79.77
67942;SHT31;54731;42.600;23.476;2023-04-03T16:43:26;7.77;79.89
67942;SHT31;54731;42.600;23.476;2023-04-03T16:45:52;7.74;79.72
67942;SHT31;54731;42.600;23.476;2023-04-03T16:48:17;7.74;79.92
67942;SHT31;54731;42.600;23.476;2023-04-03T16:50:46;7.73;79.95
67942;SHT31;54731;42.600;23.476;2023-04-03T16:53:12;7.67;80.26
67942;SHT31;54731;42.600;23.476;2023-04-03T16:55:37;7.42;82.15
67942;SHT31;54731;42.600;23.476;2023-04-03T16:58:02;7.31;83.18
67942;SHT31;54731;42.600;23.476;2023-04-03T17:00:30;7.43;83.20